Time;durP1;ratioP1;P1;durP2;ratioP2;P2;SDS_P1;SDS_P2;PMS_P1;PMS_P2;Temp;Humidity;BMP_temperature;BMP_pressure;BME280_temperature;BME280_humidity;BME280_pressure;Samples;Min_cycle;Max_cycle;Signal;HPM_P1;HPM_P2
2023/09/18 00:00:11;;;;;;;13.02;4.55;;;;;;;18.12;96.57;99875.25;4897958;29;20055;-69
2023/09/18 00:03:14;;;;;;;9.02;4.53;;;;;;;18.12;96.28;99872.63;4897867;29;20522;-69
2023/09/18 00:06:17;;;;;;;14.02;5.15;;;;;;;17.99;96.96;99872.09;4897766;29;20047;-69
2023/09/18 00:09:22;;;;;;;12.40;4.80;;;;;;;18.06;96.59;99862.59;4898048;29;20526;-69
2023/09/18 00:12:26;;;;;;;10.13;4.20;;;;;;;18.01;96.83;99856.94;4897640;29;20574;-69
2023/09/18 00:15:31;;;;;;;10.10;4.60;;;;;;;17.99;95.85;99850.94;4897821;29;20230;-69
2023/09/18 00:18:34;;;;;;;7.10;4.45;;;;;;;17.96;96.47;99857.34;4897616;29;20051;-69
2023/09/18 00:21:38;;;;;;;8.75;4.32;;;;;;;17.87;96.74;99843.19;4896754;29;20079;-69
2023/09/18 00:24:41;;;;;;;11.02;4.55;;;;;;;17.93;95.99;99844.41;4897489;29;20418;-69
2023/09/18 00:27:44;;;;;;;10.25;4.20;;;;;;;17.85;96.05;99845.16;4897618;29;20108;-69
2023/09/18 00:30:49;;;;;;;7.45;4.50;;;;;;;17.75;96.89;99840.84;4897568;29;20051;-69
2023/09/18 00:33:52;;;;;;;10.25;3.85;;;;;;;17.78;97.29;99848.50;4897469;29;20044;-69
2023/09/18 00:36:56;;;;;;;10.75;4.38;;;;;;;17.78;96.69;99837.94;4897832;29;20051;-69
2023/09/18 00:39:59;;;;;;;8.73;4.03;;;;;;;17.70;97.31;99822.75;4897705;29;20050;-69
2023/09/18 00:43:02;;;;;;;7.85;4.10;;;;;;;17.72;96.69;99812.03;4897434;29;20046;-69
2023/09/18 00:46:06;;;;;;;9.30;4.35;;;;;;;17.74;96.41;99808.28;4897399;29;20047;-69
2023/09/18 00:49:10;;;;;;;9.07;5.15;;;;;;;17.69;97.10;99813.16;4897410;29;20136;-69
2023/09/18 00:52:22;;;;;;;9.00;3.92;;;;;;;17.64;96.59;99805.66;4897414;29;20279;-69
2023/09/18 00:55:30;;;;;;;9.93;4.10;;;;;;;17.64;96.07;99810.09;4886026;29;20063;-69
2023/09/18 00:58:34;;;;;;;5.88;4.13;;;;;;;17.57;96.78;99806.34;4897666;29;20148;-69
2023/09/18 01:01:39;;;;;;;13.07;4.28;;;;;;;17.62;96.12;99806.78;4896614;29;20472;-69
2023/09/18 01:04:44;;;;;;;10.93;4.18;;;;;;;17.60;96.68;99809.53;4897167;29;20047;-69
2023/09/18 01:07:47;;;;;;;9.75;4.68;;;;;;;17.55;96.59;99800.38;4897174;29;20051;-69
2023/09/18 01:11:26;;;;;;;9.60;4.45;;;;;;;17.55;96.76;99809.16;4897493;29;20514;-69
2023/09/18 01:14:53;;;;;;;9.50;4.07;;;;;;;17.55;97.38;99810.94;4885727;29;20055;-69
2023/09/18 01:17:57;;;;;;;6.32;4.00;;;;;;;17.64;96.48;99807.44;4897111;29;20136;-69
2023/09/18 01:20:59;;;;;;;7.40;3.80;;;;;;;17.59;96.16;99799.13;4885372;29;20055;-69
2023/09/18 01:24:03;;;;;;;7.22;4.20;;;;;;;17.54;97.03;99801.34;4896360;29;20077;-69
2023/09/18 01:27:11;;;;;;;14.13;5.63;;;;;;;17.59;97.14;99801.78;4897051;29;20093;-69
2023/09/18 01:30:15;;;;;;;9.75;4.45;;;;;;;17.63;97.02;99808.44;4897443;29;20111;-69
2023/09/18 01:33:20;;;;;;;11.07;3.97;;;;;;;17.72;96.41;99796.16;4888797;29;20063;-69
2023/09/18 01:36:24;;;;;;;8.18;4.18;;;;;;;17.74;96.28;99788.91;4900430;29;20039;-69
2023/09/18 01:39:31;;;;;;;11.82;5.20;;;;;;;17.70;96.25;99788.38;4900657;29;20047;-68
2023/09/18 01:42:35;;;;;;;13.88;4.85;;;;;;;17.70;96.92;99793.66;4900341;29;20099;-68
2023/09/18 01:45:39;;;;;;;9.32;4.50;;;;;;;17.74;96.58;99794.19;4899493;29;20079;-69
2023/09/18 01:48:47;;;;;;;8.20;4.97;;;;;;;17.76;96.33;99808.94;4888591;29;20574;-69
2023/09/18 01:51:50;;;;;;;8.85;4.63;;;;;;;17.61;98.01;99863.25;4900231;29;20132;-69
2023/09/18 01:54:54;;;;;;;11.38;4.45;;;;;;;17.45;100.00;99879.66;4900104;29;20096;-69
2023/09/18 01:57:58;;;;;;;10.23;4.97;;;;;;;17.35;100.00;99866.47;4900011;29;20050;-69
2023/09/18 02:01:02;;;;;;;8.93;5.20;;;;;;;17.47;100.00;99871.63;4899409;29;20092;-68
2023/09/18 02:04:06;;;;;;;12.05;4.63;;;;;;;17.69;100.00;99866.03;4888391;29;20538;-69
2023/09/18 02:07:09;;;;;;;10.70;5.78;;;;;;;17.84;100.00;99859.34;4900138;29;20051;-69
2023/09/18 02:10:13;;;;;;;10.40;4.20;;;;;;;17.98;100.00;99852.75;4899197;29;20060;-69
2023/09/18 02:13:17;;;;;;;12.70;5.45;;;;;;;18.02;100.00;99840.06;4899940;29;20151;-69
2023/09/18 02:16:23;;;;;;;12.43;5.15;;;;;;;18.00;100.00;99834.13;4888288;29;20563;-69
2023/09/18 02:19:26;;;;;;;12.00;5.05;;;;;;;17.96;100.00;99822.13;4899603;29;20519;-63
2023/09/18 02:22:32;;;;;;;10.43;5.57;;;;;;;18.02;100.00;99805.69;4899769;29;20104;-70
2023/09/18 02:25:35;;;;;;;11.43;4.80;;;;;;;17.93;100.00;99795.97;4899002;29;20050;-70
2023/09/18 02:28:38;;;;;;;13.00;4.70;;;;;;;17.92;100.00;99759.94;4900069;29;20574;-69
2023/09/18 02:31:42;;;;;;;13.13;4.60;;;;;;;17.98;100.00;99740.84;4899864;29;20086;-69
2023/09/18 02:34:45;;;;;;;11.90;5.90;;;;;;;17.95;100.00;99743.78;4899567;29;20563;-69
2023/09/18 02:37:48;;;;;;;11.45;4.68;;;;;;;17.87;100.00;99752.44;4899579;29;20055;-69
2023/09/18 02:40:53;;;;;;;14.32;6.10;;;;;;;17.88;100.00;99754.09;4899511;29;20048;-69
2023/09/18 02:43:56;;;;;;;11.10;4.93;;;;;;;17.91;100.00;99745.06;4897724;29;20055;-70
2023/09/18 02:46:59;;;;;;;15.98;5.85;;;;;;;17.94;100.00;99752.69;4899295;29;20059;-69
2023/09/18 02:50:04;;;;;;;10.40;4.88;;;;;;;17.93;100.00;99738.63;4887731;29;20048;-70
2023/09/18 02:53:16;;;;;;;10.57;5.80;;;;;;;17.95;100.00;99733.19;4898432;29;20103;-70
2023/09/18 02:56:19;;;;;;;13.75;4.90;;;;;;;17.96;100.00;99732.22;4898379;29;20108;-69
2023/09/18 02:59:23;;;;;;;6.97;5.20;;;;;;;17.81;100.00;99735.34;4899512;29;20047;-69
2023/09/18 03:02:26;;;;;;;12.38;5.88;;;;;;;17.53;100.00;99731.81;4898406;29;20115;-69
2023/09/18 03:05:31;;;;;;;9.48;5.93;;;;;;;17.35;100.00;99726.41;4899058;29;20510;-70
2023/09/18 03:08:34;;;;;;;10.40;6.78;;;;;;;17.39;100.00;99719.88;4887211;29;20132;-70
2023/09/18 03:11:39;;;;;;;8.63;5.40;;;;;;;17.50;100.00;99729.44;4898014;29;20124;-70
2023/09/18 03:14:42;;;;;;;11.55;6.25;;;;;;;17.65;100.00;99737.75;4898886;29;20126;-70
2023/09/18 03:17:45;;;;;;;11.65;5.20;;;;;;;17.58;100.00;99741.94;4897904;29;20075;-70
2023/09/18 03:20:48;;;;;;;7.97;4.70;;;;;;;17.68;100.00;99748.03;4897880;29;20083;-70
2023/09/18 03:23:52;;;;;;;9.73;5.07;;;;;;;17.77;100.00;99747.22;4897979;29;20562;-70
2023/09/18 03:26:55;;;;;;;14.15;5.78;;;;;;;17.81;100.00;99748.56;4887133;29;20178;-70
2023/09/18 03:29:58;;;;;;;12.05;5.40;;;;;;;17.89;100.00;99747.84;4897732;29;20515;-70
2023/09/18 03:33:01;;;;;;;11.43;5.90;;;;;;;17.92;100.00;99760.75;4897882;29;20587;-74
2023/09/18 03:36:05;;;;;;;11.63;5.47;;;;;;;17.87;100.00;99753.28;4897921;29;20043;-67
2023/09/18 03:39:11;;;;;;;14.15;5.50;;;;;;;17.91;100.00;99747.69;4886822;29;20052;-68
2023/09/18 03:42:15;;;;;;;6.63;5.55;;;;;;;17.92;100.00;99744.91;4887027;29;20083;-67
2023/09/18 03:45:19;;;;;;;8.90;4.57;;;;;;;17.93;100.00;99743.09;4898329;29;20123;-67
2023/09/18 03:48:25;;;;;;;7.20;5.10;;;;;;;17.91;100.00;99739.75;4886782;29;20128;-67
2023/09/18 03:51:31;;;;;;;12.52;6.10;;;;;;;17.87;100.00;99739.22;4898053;29;20124;-67
2023/09/18 03:54:35;;;;;;;11.27;4.82;;;;;;;17.82;100.00;99739.66;4898277;29;20120;-67
2023/09/18 03:57:39;;;;;;;16.27;5.20;;;;;;;17.88;100.00;99740.88;4898058;29;20051;-67
2023/09/18 04:00:43;;;;;;;10.07;5.90;;;;;;;17.83;100.00;99743.13;4898024;29;20123;-67
2023/09/18 04:03:46;;;;;;;11.05;4.88;;;;;;;17.80;100.00;99736.31;4898001;29;20087;-67
2023/09/18 04:06:50;;;;;;;11.43;4.63;;;;;;;17.80;100.00;99728.38;4886362;29;20048;-66
2023/09/18 04:09:53;;;;;;;13.63;5.22;;;;;;;17.81;100.00;99723.94;4898144;29;20056;-67
2023/09/18 04:12:56;;;;;;;7.78;5.35;;;;;;;17.78;100.00;99714.50;4897714;29;20111;-66
2023/09/18 04:16:00;;;;;;;9.55;4.53;;;;;;;17.74;100.00;99721.03;4896999;29;20510;-68
2023/09/18 04:19:04;;;;;;;11.80;5.97;;;;;;;17.62;100.00;99724.81;4886275;29;20055;-64
2023/09/18 04:22:08;;;;;;;10.00;5.32;;;;;;;17.55;100.00;99723.72;4896569;29;20059;-67
2023/09/18 04:25:12;;;;;;;7.53;4.80;;;;;;;17.61;100.00;99717.84;4897537;29;20052;-67
2023/09/18 04:28:17;;;;;;;10.38;5.82;;;;;;;17.62;100.00;99712.44;4897002;29;20063;-70
2023/09/18 04:31:20;;;;;;;9.13;5.07;;;;;;;17.61;100.00;99700.19;4896678;29;20388;-67
2023/09/18 04:34:24;;;;;;;10.55;4.88;;;;;;;17.67;100.00;99699.59;4875270;29;20051;-67
2023/09/18 04:37:28;;;;;;;12.48;4.47;;;;;;;17.72;100.00;99685.94;4896670;29;20132;-67
2023/09/18 04:40:32;;;;;;;13.10;5.45;;;;;;;17.65;100.00;99669.03;4897491;29;20047;-68
2023/09/18 04:43:36;;;;;;;10.60;4.68;;;;;;;17.62;100.00;99662.22;4885829;29;20067;-67
2023/09/18 04:46:42;;;;;;;8.30;5.00;;;;;;;17.64;100.00;99648.81;4896433;29;20139;-67
2023/09/18 04:49:49;;;;;;;7.80;5.10;;;;;;;17.65;100.00;99634.66;4896589;29;20575;-66
2023/09/18 04:52:54;;;;;;;10.63;5.25;;;;;;;17.61;100.00;99628.84;4896577;29;20101;-67
2023/09/18 04:55:58;;;;;;;8.70;4.72;;;;;;;17.62;100.00;99622.56;4896898;29;20066;-67
2023/09/18 04:59:03;;;;;;;12.50;5.32;;;;;;;17.65;100.00;99621.44;4896456;29;20104;-67
2023/09/18 05:02:10;;;;;;;6.10;3.95;;;;;;;17.60;100.00;99619.22;4885316;29;20707;-67
2023/09/18 05:05:15;;;;;;;8.48;4.63;;;;;;;17.62;100.00;99624.38;4897103;29;20543;-66
2023/09/18 05:08:17;;;;;;;8.85;4.30;;;;;;;17.64;100.00;99641.75;4900829;29;20123;-67
2023/09/18 05:11:21;;;;;;;10.63;4.93;;;;;;;17.60;100.00;99655.41;4900231;29;20557;-67
2023/09/18 05:14:31;;;;;;;19.70;6.18;;;;;;;17.48;100.00;99672.41;4901324;29;20055;-68
2023/09/18 05:17:54;;;;;;;9.07;4.68;;;;;;;17.52;100.00;99677.28;4900801;29;20047;-66
2023/09/18 05:21:04;;;;;;;8.00;5.00;;;;;;;17.55;100.00;99698.13;4900108;29;20575;-68
2023/09/18 05:24:11;;;;;;;9.20;4.80;;;;;;;17.61;100.00;99712.56;4900163;29;20043;-68
2023/09/18 05:27:18;;;;;;;10.75;5.88;;;;;;;17.46;100.00;99725.44;4899939;29;20051;-67
2023/09/18 05:30:28;;;;;;;7.13;5.25;;;;;;;17.55;100.00;99710.50;4899792;29;20059;-67
2023/09/18 05:33:31;;;;;;;12.70;5.70;;;;;;;17.49;100.00;99696.06;4900072;29;20067;-67
2023/09/18 05:37:08;;;;;;;10.30;5.25;;;;;;;17.28;100.00;99688.34;4891392;29;20071;-66
2023/09/18 05:40:14;;;;;;;11.48;5.00;;;;;;;17.32;100.00;99705.56;4899364;29;20052;-67
2023/09/18 05:43:18;;;;;;;10.95;5.72;;;;;;;17.32;100.00;99710.84;4899921;29;20048;-68
2023/09/18 05:46:22;;;;;;;9.57;5.03;;;;;;;17.32;100.00;99700.28;4912271;29;20051;-68
2023/09/18 05:49:27;;;;;;;13.65;5.50;;;;;;;17.50;100.00;99688.97;4914090;29;20418;-68
2023/09/18 05:52:30;;;;;;;11.70;5.25;;;;;;;17.59;100.00;99651.09;4916333;29;20438;-68
2023/09/18 05:55:34;;;;;;;11.90;5.32;;;;;;;17.66;100.00;99665.38;4916902;29;20510;-68
2023/09/18 05:58:37;;;;;;;10.32;5.05;;;;;;;17.76;100.00;99682.03;4914850;29;20501;-67
2023/09/18 06:01:41;;;;;;;12.80;5.90;;;;;;;17.62;100.00;99693.09;4915181;29;20042;-67
2023/09/18 06:04:45;;;;;;;10.77;4.40;;;;;;;17.71;100.00;99704.59;4915560;29;20111;-67
2023/09/18 06:07:49;;;;;;;10.45;4.95;;;;;;;17.70;100.00;99708.22;4916129;29;20184;-67
2023/09/18 06:10:52;;;;;;;13.80;4.78;;;;;;;17.84;100.00;99695.41;4916109;29;20035;-67
2023/09/18 06:13:56;;;;;;;9.82;5.35;;;;;;;17.89;100.00;99677.25;4913906;29;20494;-67
2023/09/18 06:16:59;;;;;;;13.52;4.70;;;;;;;17.88;100.00;99691.47;4914176;29;20039;-66
2023/09/18 06:20:04;;;;;;;9.77;4.65;;;;;;;17.86;100.00;99697.88;4914560;29;20047;-69
2023/09/18 06:23:07;;;;;;;14.85;5.10;;;;;;;17.83;100.00;99696.34;4915838;29;20170;-67
2023/09/18 06:26:10;;;;;;;12.15;4.88;;;;;;;17.91;100.00;99705.38;4916085;29;20111;-66
2023/09/18 06:29:15;;;;;;;17.42;5.07;;;;;;;18.00;100.00;99689.47;4914035;29;20115;-76
2023/09/18 06:32:19;;;;;;;11.57;3.60;;;;;;;18.08;100.00;99699.28;4902744;29;20043;-69
2023/09/18 06:35:22;;;;;;;12.27;3.97;;;;;;;18.19;100.00;99699.09;4915205;29;20417;-68
2023/09/18 06:38:26;;;;;;;14.10;4.30;;;;;;;18.21;100.00;99698.94;4915329;29;20142;-67
2023/09/18 06:41:29;;;;;;;8.77;3.50;;;;;;;18.22;100.00;99714.69;4916165;29;20095;-67
2023/09/18 06:44:33;;;;;;;10.10;3.53;;;;;;;18.19;100.00;99709.69;4913643;29;20047;-67
2023/09/18 06:47:37;;;;;;;12.77;3.95;;;;;;;18.19;100.00;99728.19;4914079;29;20384;-68
2023/09/18 06:50:40;;;;;;;15.48;4.10;;;;;;;18.27;100.00;99733.56;4914429;29;20068;-67
2023/09/18 06:53:44;;;;;;;14.75;5.03;;;;;;;18.34;100.00;99723.22;4915251;29;20207;-68
2023/09/18 06:56:48;;;;;;;13.15;4.57;;;;;;;18.45;100.00;99738.06;4915294;29;20497;-67
2023/09/18 06:59:51;;;;;;;11.20;3.30;;;;;;;18.42;100.00;99728.59;4915746;29;20087;-67
2023/09/18 07:02:57;;;;;;;14.30;3.30;;;;;;;18.58;100.00;99720.00;4913670;29;20059;-67
2023/09/18 07:06:01;;;;;;;10.13;4.03;;;;;;;18.59;100.00;99742.81;4914280;29;20138;-67
2023/09/18 07:09:06;;;;;;;12.13;3.38;;;;;;;18.69;100.00;99738.28;4916336;29;20066;-67
2023/09/18 07:12:09;;;;;;;11.10;3.35;;;;;;;18.62;100.00;99721.34;4915987;29;20051;-68
2023/09/18 07:15:13;;;;;;;13.73;3.55;;;;;;;18.69;100.00;99738.28;4916230;29;20075;-67
2023/09/18 07:18:16;;;;;;;10.82;2.65;;;;;;;18.76;100.00;99725.28;4915924;29;20100;-64
2023/09/18 07:21:20;;;;;;;12.68;3.97;;;;;;;18.83;100.00;99726.38;4915571;29;20554;-64
2023/09/18 07:24:24;;;;;;;10.40;2.95;;;;;;;18.97;100.00;99751.47;4915594;29;20142;-64
2023/09/18 07:27:27;;;;;;;10.57;2.78;;;;;;;18.96;100.00;99749.81;4915555;29;20459;-65
2023/09/18 07:30:31;;;;;;;11.60;3.40;;;;;;;19.02;100.00;99755.34;4915039;29;20087;-64
2023/09/18 07:33:34;;;;;;;10.80;2.88;;;;;;;19.13;100.00;99756.91;4915538;29;20523;-65
2023/09/18 07:36:39;;;;;;;10.52;2.50;;;;;;;19.19;100.00;99756.28;4914921;29;20639;-65
2023/09/18 07:39:44;;;;;;;11.82;2.92;;;;;;;19.32;100.00;99776.25;4913043;29;20488;-65
2023/09/18 07:42:47;;;;;;;10.40;3.25;;;;;;;19.28;100.00;99765.13;4913323;29;20047;-65
2023/09/18 07:45:50;;;;;;;11.75;2.40;;;;;;;19.39;95.21;99751.63;4913519;29;20123;-65
2023/09/18 07:48:54;;;;;;;12.23;2.80;;;;;;;19.57;94.70;99753.41;4914310;29;20039;-65
2023/09/18 07:51:57;;;;;;;8.70;2.42;;;;;;;19.59;92.32;99757.56;4914495;29;20039;-65
2023/09/18 07:55:00;;;;;;;11.27;3.33;;;;;;;19.65;97.84;99767.53;4911332;29;20118;-65
2023/09/18 07:58:05;;;;;;;10.30;2.55;;;;;;;19.61;100.00;99760.88;4898694;29;20066;-64
2023/09/18 08:01:10;;;;;;;10.20;3.20;;;;;;;19.62;98.22;99773.16;4911924;29;20491;-73
2023/09/18 08:04:13;;;;;;;7.43;2.63;;;;;;;19.70;93.15;99797.09;4913014;29;20055;-76
2023/09/18 08:07:16;;;;;;;9.00;2.35;;;;;;;19.80;91.21;99790.84;4913296;29;20478;-78
2023/09/18 08:10:20;;;;;;;9.65;2.40;;;;;;;19.83;90.25;99799.31;4912122;29;20426;-76
2023/09/18 08:13:24;;;;;;;9.68;3.03;;;;;;;19.88;89.87;99794.38;4912232;29;20070;-72
2023/09/18 08:16:29;;;;;;;12.25;2.83;;;;;;;19.92;89.04;99805.50;4912973;29;20035;-66
2023/09/18 08:19:33;;;;;;;13.40;2.63;;;;;;;19.97;89.10;99808.50;4913466;29;20050;-66
2023/09/18 08:22:36;;;;;;;8.15;2.67;;;;;;;20.00;88.97;99792.25;4914070;29;20517;-65
2023/09/18 08:25:42;;;;;;;7.88;2.35;;;;;;;20.00;89.15;99805.53;4911682;29;20406;-65
2023/09/18 08:28:47;;;;;;;9.25;2.78;;;;;;;19.98;93.21;99832.25;4901005;29;20538;-64
2023/09/18 08:31:50;;;;;;;5.60;2.13;;;;;;;19.90;90.57;99837.50;4913010;29;20086;-64
2023/09/18 08:34:54;;;;;;;13.93;4.78;;;;;;;19.93;88.65;99829.22;4913343;29;20101;-65
2023/09/18 08:37:57;;;;;;;11.00;3.83;;;;;;;20.04;86.98;99814.88;4913678;29;20039;-64
2023/09/18 08:41:02;;;;;;;12.25;3.90;;;;;;;20.09;86.51;99817.84;4908408;29;20083;-67
2023/09/18 08:44:08;;;;;;;13.93;3.88;;;;;;;20.14;85.21;99820.06;4914085;29;20168;-66
2023/09/18 08:47:15;;;;;;;9.88;2.60;;;;;;;20.25;89.68;99826.88;4912307;29;20495;-71
2023/09/18 08:50:20;;;;;;;8.65;2.85;;;;;;;20.11;91.33;99826.50;4913541;29;20191;-70
2023/09/18 08:53:24;;;;;;;10.73;2.70;;;;;;;20.15;90.17;99825.19;4913963;29;20100;-74
2023/09/18 08:56:28;;;;;;;9.52;1.92;;;;;;;20.07;87.04;99819.84;4913694;29;20103;-72
2023/09/18 08:59:32;;;;;;;8.27;3.05;;;;;;;20.07;85.39;99816.34;4913992;29;20164;-72
2023/09/18 09:02:35;;;;;;;5.85;1.73;;;;;;;20.02;86.10;99822.13;4914448;29;20075;-72
2023/09/18 09:05:39;;;;;;;6.38;1.67;;;;;;;19.97;85.74;99824.41;4912342;29;20414;-72
2023/09/18 09:08:45;;;;;;;9.95;2.28;;;;;;;20.07;86.06;99814.53;4912732;29;20538;-72
2023/09/18 09:11:50;;;;;;;8.40;1.70;;;;;;;20.04;89.06;99817.50;4913195;29;20115;-72
2023/09/18 09:15:12;;;;;;;6.63;1.63;;;;;;;20.01;87.33;99825.78;4914157;29;20604;-72
2023/09/18 09:18:16;;;;;;;6.82;1.95;;;;;;;20.03;85.94;99838.88;4914969;29;20422;-72
2023/09/18 09:21:19;;;;;;;7.18;1.52;;;;;;;20.08;84.52;99842.75;4899859;29;20071;-73
2023/09/18 09:24:42;;;;;;;7.03;1.80;;;;;;;20.15;84.96;99832.31;4913035;29;20047;-71
2023/09/18 09:27:50;;;;;;;7.28;1.58;;;;;;;20.17;84.48;99825.03;4913605;29;20406;-72
2023/09/18 09:31:01;;;;;;;5.32;1.77;;;;;;;20.23;84.65;99844.78;4913498;29;20043;-70
2023/09/18 09:34:05;;;;;;;7.28;1.90;;;;;;;20.13;85.02;99848.41;4909013;29;20091;-72
2023/09/18 09:37:10;;;;;;;4.25;1.40;;;;;;;20.13;83.61;99829.84;4913129;29;20074;-72
2023/09/18 09:40:14;;;;;;;6.97;1.67;;;;;;;20.15;84.31;99824.34;4913225;29;20059;-72
2023/09/18 09:43:19;;;;;;;8.35;2.00;;;;;;;20.20;82.62;99824.72;4913202;29;20140;-73
2023/09/18 09:46:25;;;;;;;6.30;1.63;;;;;;;20.21;85.93;99819.25;4913671;29;20080;-71
2023/09/18 09:49:30;;;;;;;5.38;1.60;;;;;;;20.28;85.45;99824.75;4911814;29;20094;-73
2023/09/18 09:52:33;;;;;;;7.18;2.13;;;;;;;20.29;83.41;99822.91;4912815;29;20051;-73
2023/09/18 09:55:38;;;;;;;3.85;1.60;;;;;;;20.25;83.72;99821.56;4916343;29;20042;-72
2023/09/18 09:58:43;;;;;;;6.05;1.70;;;;;;;20.30;84.13;99832.56;4916857;29;20140;-71
2023/09/18 10:01:50;;;;;;;5.43;1.60;;;;;;;20.38;83.32;99838.72;4903434;29;20051;-66
2023/09/18 10:04:53;;;;;;;4.05;1.30;;;;;;;20.48;82.10;99841.25;4915269;29;20114;-66
2023/09/18 10:08:00;;;;;;;9.57;1.75;;;;;;;20.59;81.62;99827.72;4915946;29;20467;-64
2023/09/18 10:11:16;;;;;;;7.07;1.85;;;;;;;20.65;82.12;99840.34;4913870;29;20095;-66
2023/09/18 10:14:20;;;;;;;6.53;1.13;;;;;;;20.67;82.41;99827.72;4915399;29;20050;-72
2023/09/18 10:17:26;;;;;;;4.18;1.40;;;;;;;20.63;82.92;99846.81;4916630;29;20474;-66
2023/09/18 10:20:30;;;;;;;5.25;1.35;;;;;;;20.61;81.66;99852.28;4902531;29;20131;-66
2023/09/18 10:24:08;;;;;;;5.45;1.70;;;;;;;20.52;80.75;99857.75;4915139;29;20118;-66
2023/09/18 10:27:14;;;;;;;5.38;1.85;;;;;;;20.53;80.68;99846.94;4914715;29;20647;-64
2023/09/18 10:30:20;;;;;;;5.57;1.67;;;;;;;20.66;80.20;99847.31;4915142;29;20136;-66
2023/09/18 10:33:23;;;;;;;12.48;2.58;;;;;;;20.74;80.26;99857.16;4915843;29;20083;-66
2023/09/18 10:36:29;;;;;;;6.55;1.73;;;;;;;20.79;79.70;99854.81;4913751;29;20059;-64
2023/09/18 10:39:35;;;;;;;4.57;1.40;;;;;;;20.78;79.47;99860.31;4914232;29;20047;-65
2023/09/18 10:42:41;;;;;;;3.78;1.42;;;;;;;20.82;80.02;99866.94;4915111;29;20047;-67
2023/09/18 10:45:45;;;;;;;7.65;1.98;;;;;;;20.63;80.27;99858.25;4913154;29;20356;-66
2023/09/18 10:48:49;;;;;;;5.22;1.30;;;;;;;20.74;79.76;99856.28;4913684;29;20072;-66
2023/09/18 10:51:56;;;;;;;6.97;2.22;;;;;;;20.65;80.70;99860.78;4914177;29;20047;-66
2023/09/18 10:55:02;;;;;;;6.00;1.73;;;;;;;20.78;80.04;99852.34;4901661;29;20102;-65
2023/09/18 10:58:06;;;;;;;3.42;1.27;;;;;;;20.77;80.19;99851.50;4912931;29;20110;-70
2023/09/18 11:01:13;;;;;;;12.52;1.52;;;;;;;20.60;80.64;99853.25;4910773;29;20047;-64
2023/09/18 11:04:20;;;;;;;8.38;2.13;;;;;;;20.74;79.84;99843.00;4913664;29;20035;-66
2023/09/18 11:07:25;;;;;;;8.15;1.38;;;;;;;20.84;80.10;99833.91;4915931;29;20180;-65
2023/09/18 11:10:28;;;;;;;6.40;1.73;;;;;;;20.97;78.55;99827.28;4915625;29;20142;-66
2023/09/18 11:13:35;;;;;;;7.82;1.95;;;;;;;20.98;78.62;99840.41;4915721;29;20127;-66
2023/09/18 11:16:39;;;;;;;7.15;1.55;;;;;;;21.08;77.86;99846.41;4914957;29;20175;-65
2023/09/18 11:19:44;;;;;;;4.38;1.45;;;;;;;21.20;77.73;99848.75;4914803;29;20050;-67
2023/09/18 11:22:55;;;;;;;3.92;1.38;;;;;;;21.28;77.19;99846.94;4912855;29;20047;-80
2023/09/18 11:25:58;;;;;;;4.70;1.17;;;;;;;21.39;76.68;99852.94;4914056;29;20047;-66
2023/09/18 11:29:05;;;;;;;4.22;1.15;;;;;;;21.35;76.36;99852.44;4914698;29;20042;-69
2023/09/18 11:32:09;;;;;;;6.07;1.20;;;;;;;21.34;76.78;99843.56;4912816;29;20059;-68
2023/09/18 11:35:13;;;;;;;3.55;1.35;;;;;;;21.31;75.98;99827.97;4913477;29;20043;-68
2023/09/18 11:38:17;;;;;;;4.35;1.67;;;;;;;21.29;76.00;99837.13;4913606;29;20079;-68
2023/09/18 11:41:25;;;;;;;4.25;1.15;;;;;;;21.47;75.68;99834.28;4914247;29;20063;-68
2023/09/18 11:44:29;;;;;;;5.13;1.50;;;;;;;21.69;74.90;99825.63;4912875;29;20498;-68
2023/09/18 11:47:36;;;;;;;4.20;1.35;;;;;;;21.79;73.48;99836.09;4911746;29;20475;-68
2023/09/18 11:50:42;;;;;;;5.85;1.70;;;;;;;22.05;73.05;99833.22;4913429;29;20086;-68
2023/09/18 11:53:45;;;;;;;5.43;1.83;;;;;;;22.20;72.30;99814.69;4914840;29;20542;-67
2023/09/18 11:56:49;;;;;;;5.25;1.00;;;;;;;22.29;73.23;99821.66;4913912;29;20526;-66
2023/09/18 11:59:53;;;;;;;5.28;1.55;;;;;;;22.25;71.36;99807.03;4913862;29;20088;-66
2023/09/18 12:02:57;;;;;;;3.65;1.25;;;;;;;22.55;72.28;99807.22;4914976;29;20047;-69
2023/09/18 12:06:05;;;;;;;6.95;1.23;;;;;;;22.21;69.09;99806.56;4912207;29;20047;-71
2023/09/18 12:09:11;;;;;;;7.72;1.40;;;;;;;22.21;69.33;99811.06;4913816;29;20524;-74
2023/09/18 12:12:17;;;;;;;3.63;1.08;;;;;;;22.29;69.31;99811.00;4913942;29;20059;-74
2023/09/18 12:15:21;;;;;;;4.47;1.63;;;;;;;22.50;69.22;99829.88;4911619;29;20466;-71
2023/09/18 12:18:25;;;;;;;5.70;1.30;;;;;;;22.37;69.61;99824.31;4912495;29;20506;-70
2023/09/18 12:21:28;;;;;;;6.63;2.20;;;;;;;22.26;70.04;99827.31;4912775;29;20111;-71
2023/09/18 12:24:31;;;;;;;3.22;1.10;;;;;;;22.05;70.92;99843.88;4911532;29;20047;-72
2023/09/18 12:27:36;;;;;;;4.65;1.70;;;;;;;21.79;71.53;99847.59;4911169;29;20055;-71
2023/09/18 12:30:40;;;;;;;4.78;1.42;;;;;;;21.84;71.83;99833.75;4909773;29;20072;-70
2023/09/18 12:33:46;;;;;;;4.53;1.40;;;;;;;22.09;70.95;99829.19;4910917;29;20397;-71
2023/09/18 12:36:51;;;;;;;5.65;1.98;;;;;;;22.23;69.89;99830.34;4912301;29;20051;-71
2023/09/18 12:39:54;;;;;;;3.75;1.23;;;;;;;22.47;68.81;99811.59;4913562;29;20042;-75
2023/09/18 12:42:59;;;;;;;4.47;1.40;;;;;;;22.86;67.39;99802.69;4913763;29;20043;-76
2023/09/18 12:46:08;;;;;;;4.45;1.17;;;;;;;23.50;64.85;99801.53;4914202;29;20123;-76
2023/09/18 12:49:21;;;;;;;4.00;0.90;;;;;;;23.88;63.57;99799.66;4890715;29;20479;-76
2023/09/18 12:52:24;;;;;;;5.55;1.15;;;;;;;24.46;61.27;99805.16;4914179;29;20122;-76
2023/09/18 12:55:29;;;;;;;6.68;2.08;;;;;;;24.85;59.97;99796.75;4913020;29;20096;-78
2023/09/18 12:58:33;;;;;;;7.20;1.63;;;;;;;24.39;61.17;99796.22;4913391;29;20077;-82
2023/09/18 13:01:38;;;;;;;4.20;1.30;;;;;;;23.52;64.62;99794.19;4914568;29;20170;-80
2023/09/18 13:04:41;;;;;;;4.00;1.05;;;;;;;23.11;65.78;99799.88;4913604;29;20054;-77
2023/09/18 13:07:45;;;;;;;3.40;0.90;;;;;;;22.91;66.30;99797.66;4914226;29;20174;-77
2023/09/18 13:10:52;;;;;;;5.38;1.15;;;;;;;22.90;65.98;99796.00;4914105;29;20106;-76
2023/09/18 13:14:00;;;;;;;3.80;1.40;;;;;;;22.96;66.07;99789.97;4902481;29;20068;-74
2023/09/18 13:17:04;;;;;;;3.63;1.15;;;;;;;22.96;65.91;99803.31;4906480;29;20047;-74
2023/09/18 13:20:26;;;;;;;6.35;1.73;;;;;;;22.96;65.08;99789.97;4912465;29;20118;-73
2023/09/18 13:23:31;;;;;;;6.53;1.17;;;;;;;23.14;64.96;99783.53;4913397;29;20174;-76
2023/09/18 13:26:35;;;;;;;3.08;1.02;;;;;;;23.09;67.36;99781.38;4911277;29;20086;-75
2023/09/18 13:29:38;;;;;;;5.18;1.50;;;;;;;23.23;64.83;99779.78;4917555;29;20055;-75
2023/09/18 13:32:41;;;;;;;7.22;1.38;;;;;;;23.15;65.22;99778.00;4915565;29;20047;-76
2023/09/18 13:35:45;;;;;;;4.63;1.65;;;;;;;24.85;57.99;99774.53;4916080;29;20058;-74
2023/09/18 13:38:49;;;;;;;2.38;0.90;;;;;;;25.05;58.26;99760.31;4915908;29;20047;-78
2023/09/18 13:41:52;;;;;;;7.40;2.58;;;;;;;32.00;39.57;99750.75;4916246;29;20055;-74
2023/09/18 13:44:57;;;;;;;5.82;1.55;;;;;;;28.07;46.89;99759.09;4914462;29;20039;-73
2023/09/18 13:48:02;;;;;;;16.52;5.93;;;;;;;31.90;39.88;99745.97;4914985;29;20138;-77
2023/09/18 13:51:06;;;;;;;5.72;1.70;;;;;;;28.00;45.87;99749.19;4917909;29;20059;-76
2023/09/18 13:54:10;;;;;;;4.05;1.30;;;;;;;27.49;48.67;99749.09;4918228;29;20197;-75
2023/09/18 13:57:13;;;;;;;5.93;1.40;;;;;;;28.27;46.10;99749.91;4917636;29;20143;-76
2023/09/18 14:00:20;;;;;;;7.65;2.78;;;;;;;28.67;45.50;99740.81;4906004;29;20091;-75
2023/09/18 14:03:26;;;;;;;2.75;1.10;;;;;;;33.90;34.77;99729.28;4906360;29;20051;-76
2023/09/18 14:06:32;;;;;;;6.28;2.03;;;;;;;31.16;38.36;99724.03;4917901;29;20498;-75
2023/09/18 14:09:37;;;;;;;5.07;1.55;;;;;;;28.63;43.98;99726.97;4917744;29;20114;-75
2023/09/18 14:12:44;;;;;;;5.13;1.23;;;;;;;26.58;49.31;99718.34;4917592;29;20039;-74
2023/09/18 14:15:47;;;;;;;5.47;2.28;;;;;;;24.87;54.00;99721.69;4905194;29;20470;-70
2023/09/18 14:18:53;;;;;;;5.68;1.90;;;;;;;24.27;56.75;99718.38;4917076;29;20117;-70
2023/09/18 14:21:57;;;;;;;4.65;1.98;;;;;;;24.01;58.04;99721.59;4905584;29;20059;-69